createdAt,value
2018-03-04T00:02:05.731Z,2.50
2018-03-04T00:07:12.317Z,2.50
2018-03-04T00:12:15.296Z,2.40
2018-03-04T00:17:18.051Z,2.40
2018-03-04T00:27:51.472Z,2.40
2018-03-04T00:32:54.320Z,2.40
2018-03-04T00:37:57.284Z,2.50
2018-03-04T00:43:00.082Z,2.50
2018-03-04T00:48:02.882Z,2.60
2018-03-04T00:53:05.694Z,2.60
2018-03-04T00:58:08.539Z,2.60
2018-03-04T01:03:11.342Z,2.70
2018-03-04T01:08:14.124Z,2.70
2018-03-04T01:13:17.090Z,2.70
2018-03-04T01:18:20.808Z,2.80
2018-03-04T01:23:24.567Z,2.70
2018-03-04T01:28:27.474Z,2.70
2018-03-04T01:33:30.648Z,2.70
2018-03-04T01:38:34.189Z,2.90
2018-03-04T01:43:37.290Z,2.80
2018-03-04T01:48:40.518Z,2.90
2018-03-04T01:53:43.659Z,2.90
2018-03-04T01:58:46.975Z,2.90
2018-03-04T02:03:49.774Z,2.90
2018-03-04T02:08:52.621Z,2.90
2018-03-04T02:13:55.481Z,2.90
2018-03-04T02:18:58.696Z,3.00
2018-03-04T02:24:01.486Z,3.00
2018-03-04T02:29:04.944Z,3.00
2018-03-04T02:34:08.458Z,3.10
2018-03-04T02:39:11.380Z,3.00
2018-03-04T02:44:15.054Z,3.10
2018-03-04T02:49:18.982Z,3.00
2018-03-04T02:54:22.220Z,2.90
2018-03-04T02:59:25.437Z,3.00
2018-03-04T03:04:28.241Z,3.10
2018-03-04T03:09:31.064Z,3.10
2018-03-04T03:14:33.867Z,3.00
2018-03-04T03:19:36.763Z,2.90
2018-03-04T03:24:39.656Z,3.00
2018-03-04T03:29:42.621Z,3.10
2018-03-04T03:34:45.804Z,3.10
2018-03-04T03:39:49.457Z,3.00
2018-03-04T03:44:53.103Z,3.00
2018-03-04T03:49:56.392Z,3.00
2018-03-04T03:54:59.610Z,2.90
2018-03-04T04:00:03.433Z,2.80
2018-03-04T06:38:12.045Z,1.40
2018-03-04T06:43:16.237Z,1.70
2018-03-04T06:48:19.314Z,2.10
2018-03-04T07:11:42.864Z,2.40
2018-03-04T07:16:46.013Z,2.50
2018-03-04T07:21:49.202Z,2.80
2018-03-04T07:26:55.883Z,3.00
2018-03-04T07:31:58.726Z,3.50
2018-03-04T07:37:01.705Z,3.80
2018-03-04T07:42:05.173Z,4.00
2018-03-04T07:47:10.616Z,4.30
2018-03-04T07:52:13.551Z,4.20
2018-03-04T07:57:17.093Z,4.50
2018-03-04T08:02:19.918Z,4.40
2018-03-04T08:07:24.632Z,4.70
2018-03-04T08:12:28.019Z,4.70
2018-03-04T08:17:34.492Z,4.90
2018-03-04T08:22:39.209Z,5.00
2018-03-04T08:27:54.086Z,4.90
2018-03-04T08:32:58.174Z,5.20
2018-03-04T08:38:06.556Z,5.20
2018-03-04T08:43:34.938Z,5.70
2018-03-04T08:54:15.313Z,6.90
2018-03-04T08:59:22.385Z,6.80
2018-03-04T09:04:25.328Z,7.30
2018-03-04T09:09:28.224Z,7.70
2018-03-04T09:14:31.082Z,8.20
2018-03-04T09:19:34.388Z,8.50
2018-03-04T09:24:37.829Z,8.70
2018-03-04T09:29:42.045Z,8.70
2018-03-04T09:34:45.193Z,8.90
2018-03-04T09:39:49.346Z,9.00
2018-03-04T09:44:53.951Z,9.30
2018-03-04T09:49:57.264Z,9.70
2018-03-04T09:55:04.952Z,9.70
2018-03-04T10:00:09.094Z,9.80
2018-03-04T10:05:12.253Z,9.90
2018-03-04T10:10:17.886Z,10.30
2018-03-04T10:15:20.714Z,10.30
2018-03-04T10:20:25.063Z,10.70
2018-03-04T10:25:29.090Z,10.70
2018-03-04T10:30:31.906Z,10.70
2018-03-04T10:35:35.893Z,10.90
2018-03-04T10:40:39.864Z,11.20
2018-03-04T10:45:42.843Z,11.20
2018-03-04T10:56:25.147Z,11.90
2018-03-04T11:01:45.211Z,12.50
2018-03-04T11:06:48.454Z,13.00
2018-03-04T11:11:55.154Z,12.90
2018-03-04T11:16:58.318Z,13.30
2018-03-04T11:22:06.760Z,13.80
2018-03-04T11:27:14.926Z,14.30
2018-03-04T11:32:18.940Z,14.60
2018-03-04T11:37:22.877Z,15.00
2018-03-04T11:42:26.778Z,15.20
2018-03-04T11:47:29.629Z,15.70
2018-03-04T11:52:33.552Z,15.80
2018-03-04T11:57:37.217Z,15.80
2018-03-04T12:02:41.131Z,15.80
2018-03-04T12:07:44.313Z,15.70
2018-03-04T12:12:48.585Z,16.20
2018-03-04T12:17:51.375Z,16.20
2018-03-04T12:22:54.191Z,16.30
2018-03-04T12:27:57.120Z,16.30
2018-03-04T12:38:31.058Z,15.20
2018-03-04T12:43:36.812Z,15.30
2018-03-04T12:48:41.209Z,16.00
2018-03-04T12:53:45.012Z,15.70
2018-03-04T12:58:47.977Z,15.70
2018-03-04T13:03:51.141Z,15.70
2018-03-04T13:08:56.170Z,15.90
2018-03-04T13:13:59.063Z,15.80
2018-03-04T13:19:02.702Z,16.20
2018-03-04T13:24:08.862Z,16.40
2018-03-04T13:34:22.245Z,15.90
2018-03-04T13:39:25.297Z,15.90
2018-03-04T13:44:28.143Z,16.10
2018-03-04T13:49:31.012Z,15.70
2018-03-04T13:54:37.944Z,15.20
2018-03-04T13:59:40.798Z,14.70
2018-03-04T14:04:43.572Z,14.30
2018-03-04T14:09:46.347Z,14.20
2018-03-04T14:14:49.137Z,14.20
2018-03-04T14:19:52.248Z,14.20
2018-03-04T14:24:55.039Z,14.20
2018-03-04T14:29:57.880Z,14.70
2018-03-04T14:35:04.635Z,15.00
2018-03-04T14:40:07.783Z,14.90
2018-03-04T14:45:13.411Z,14.60
2018-03-04T14:50:17.350Z,14.60
2018-03-04T14:55:21.273Z,14.40
2018-03-04T15:00:24.985Z,14.10
2018-03-04T15:05:28.818Z,13.80
2018-03-04T15:10:38.143Z,13.50
2018-03-04T15:15:41.265Z,13.30
2018-03-04T15:20:45.598Z,13.10
2018-03-04T15:26:01.516Z,13.00
2018-03-04T15:31:04.687Z,12.90
2018-03-04T15:36:08.040Z,12.80
2018-03-04T15:41:10.865Z,12.70
2018-03-04T15:46:14.461Z,12.70
2018-03-04T15:51:17.493Z,12.60
2018-03-04T15:56:21.236Z,12.50
2018-03-04T16:01:25.103Z,12.40
2018-03-04T16:06:27.899Z,12.20
2018-03-04T16:11:31.182Z,11.90
2018-03-04T16:16:34.060Z,11.70
2018-03-04T16:21:36.903Z,11.60
2018-03-04T16:26:39.715Z,11.50
2018-03-04T16:31:44.611Z,11.40
2018-03-04T16:36:47.772Z,11.20
2018-03-04T16:41:50.594Z,11.10
2018-03-04T16:46:53.674Z,11.00
2018-03-04T16:51:58.065Z,10.90
2018-03-04T16:57:01.960Z,10.70
2018-03-04T17:02:07.732Z,10.60
2018-03-04T17:07:10.881Z,10.50
2018-03-04T17:12:13.662Z,10.50
2018-03-04T17:17:16.805Z,10.40
2018-03-04T17:22:19.800Z,10.30
2018-03-04T17:27:22.638Z,10.10
2018-03-04T17:32:25.489Z,10.00
2018-03-04T17:37:29.111Z,9.70
2018-03-04T17:42:31.951Z,9.60
2018-03-04T17:47:34.889Z,9.70
2018-03-04T17:52:37.819Z,9.70
2018-03-04T17:57:40.772Z,9.70
2018-03-04T18:02:44.321Z,9.80
2018-03-04T18:07:47.169Z,9.70
2018-03-04T18:12:51.409Z,9.70
2018-03-04T18:28:54.369Z,9.30
2018-03-04T18:33:57.180Z,9.30
2018-03-04T18:39:01.068Z,9.30
2018-03-04T18:44:03.958Z,9.20
2018-03-04T18:49:07.160Z,9.20
2018-03-04T18:54:18.040Z,9.20
2018-03-04T18:59:21.187Z,9.10
2018-03-04T19:04:24.097Z,9.10
2018-03-04T19:09:26.916Z,9.10
2018-03-04T19:14:30.640Z,9.00
2018-03-04T19:19:33.879Z,9.00
2018-03-04T19:24:37.009Z,9.00
2018-03-04T19:29:39.940Z,9.00
2018-03-04T19:34:42.823Z,8.90
2018-03-04T19:39:45.787Z,8.90
2018-03-04T19:44:49.433Z,8.90
2018-03-04T19:49:53.484Z,8.90
2018-03-04T19:54:56.577Z,8.90
2018-03-04T20:00:00.260Z,8.80
2018-03-04T20:05:03.178Z,8.70
2018-03-04T20:10:10.010Z,8.70
2018-03-04T20:15:13.230Z,8.60
2018-03-04T20:20:17.907Z,8.70
2018-03-04T20:25:22.069Z,8.60
2018-03-04T20:30:25.048Z,8.70
2018-03-04T20:35:28.110Z,8.70
2018-03-04T20:40:35.869Z,8.70
2018-03-04T20:45:38.893Z,8.80
2018-03-04T20:50:47.713Z,8.80
2018-03-04T20:55:56.813Z,8.90
2018-03-04T21:01:05.448Z,8.80
2018-03-04T21:06:10.075Z,8.80
2018-03-04T21:11:25.262Z,8.90
2018-03-04T21:22:08.494Z,8.70
2018-03-04T21:27:22.450Z,8.60
2018-03-04T21:37:41.228Z,8.70
2018-03-04T21:48:11.058Z,8.80
2018-03-04T21:59:09.551Z,8.80
2018-03-04T22:04:15.023Z,8.90
2018-03-04T22:09:21.599Z,8.90
2018-03-04T22:14:24.469Z,8.90
2018-03-04T22:19:28.349Z,8.80
2018-03-04T22:24:36.458Z,8.70
2018-03-04T22:29:42.760Z,8.60
2018-03-04T22:34:46.665Z,8.40
2018-03-04T22:39:49.489Z,8.40
2018-03-04T22:45:02.186Z,8.30
2018-03-04T22:50:05.124Z,8.20
2018-03-04T22:55:08.062Z,8.20
2018-03-04T23:00:15.391Z,8.20
2018-03-04T23:05:20.183Z,8.10
2018-03-04T23:10:23.783Z,8.20
2018-03-04T23:15:26.951Z,8.10
2018-03-04T23:20:30.262Z,8.10
2018-03-04T23:25:37.529Z,8.10
2018-03-04T23:30:40.431Z,8.10
2018-03-04T23:35:44.629Z,8.00
2018-03-04T23:40:51.947Z,8.00
2018-03-04T23:45:56.052Z,8.00
2018-03-04T23:51:00.712Z,7.90
2018-03-04T23:56:05.967Z,7.90
